sensor_id;sensor_type;location;lat;lon;timestamp;pressure;altitude;pressure_sealevel;temperature;humidity
21234;BME280;10774;42.178;26.578;2023-04-25T00:01:33;99369.66;;;14.14;73.32
21234;BME280;10774;42.178;26.578;2023-04-25T00:04:03;99384.44;;;14.20;73.92
21234;BME280;10774;42.178;26.578;2023-04-25T00:06:32;99382.19;;;14.25;74.38
21234;BME280;10774;42.178;26.578;2023-04-25T00:09:02;99369.09;;;14.20;74.48
21234;BME280;10774;42.178;26.578;2023-04-25T00:11:28;99354.41;;;14.13;74.36
21234;BME280;10774;42.178;26.578;2023-04-25T00:13:55;99334.06;;;13.99;74.47
21234;BME280;10774;42.178;26.578;2023-04-25T00:16:20;99357.09;;;14.03;74.32
21234;BME280;10774;42.178;26.578;2023-04-25T00:18:46;99343.09;;;13.89;75.16
21234;BME280;10774;42.178;26.578;2023-04-25T00:21:17;99369.84;;;14.01;75.70
21234;BME280;10774;42.178;26.578;2023-04-25T00:23:43;99354.75;;;13.89;76.38
21234;BME280;10774;42.178;26.578;2023-04-25T00:26:08;99362.38;;;13.84;76.86
21234;BME280;10774;42.178;26.578;2023-04-25T00:28:34;99356.38;;;13.80;77.50
21234;BME280;10774;42.178;26.578;2023-04-25T00:30:59;99359.88;;;13.92;77.57
21234;BME280;10774;42.178;26.578;2023-04-25T00:33:25;99339.25;;;13.81;77.60
21234;BME280;10774;42.178;26.578;2023-04-25T00:35:50;99349.03;;;13.82;78.36
21234;BME280;10774;42.178;26.578;2023-04-25T00:38:16;99343.63;;;13.82;78.25
21234;BME280;10774;42.178;26.578;2023-04-25T00:40:41;99331.66;;;13.75;77.70
21234;BME280;10774;42.178;26.578;2023-04-25T00:43:08;99319.44;;;13.71;77.63
21234;BME280;10774;42.178;26.578;2023-04-25T00:45:37;99345.34;;;13.83;76.46
21234;BME280;10774;42.178;26.578;2023-04-25T00:48:04;99327.09;;;13.66;76.63
21234;BME280;10774;42.178;26.578;2023-04-25T00:50:29;99323.66;;;13.64;76.47
21234;BME280;10774;42.178;26.578;2023-04-25T00:52:55;99328.19;;;13.64;76.46
21234;BME280;10774;42.178;26.578;2023-04-25T00:55:21;99324.72;;;13.52;76.44
21234;BME280;10774;42.178;26.578;2023-04-25T00:57:47;99320.03;;;13.54;76.24
21234;BME280;10774;42.178;26.578;2023-04-25T01:00:13;99316.34;;;13.55;76.40
21234;BME280;10774;42.178;26.578;2023-04-25T01:02:40;99320.22;;;13.62;76.45
21234;BME280;10774;42.178;26.578;2023-04-25T01:05:07;99311.41;;;13.60;76.31
21234;BME280;10774;42.178;26.578;2023-04-25T01:07:33;99291.44;;;13.42;76.01
21234;BME280;10774;42.178;26.578;2023-04-25T01:09:59;99295.66;;;13.34;76.11
21234;BME280;10774;42.178;26.578;2023-04-25T01:12:24;99303.69;;;13.46;76.69
21234;BME280;10774;42.178;26.578;2023-04-25T01:14:50;99297.63;;;13.32;76.40
21234;BME280;10774;42.178;26.578;2023-04-25T01:17:15;99289.59;;;13.21;76.94
21234;BME280;10774;42.178;26.578;2023-04-25T01:19:41;99278.44;;;13.26;76.54
21234;BME280;10774;42.178;26.578;2023-04-25T01:22:07;99296.28;;;13.48;76.32
21234;BME280;10774;42.178;26.578;2023-04-25T01:24:35;99266.56;;;13.17;76.68
21234;BME280;10774;42.178;26.578;2023-04-25T01:27:01;99271.19;;;13.26;76.78
21234;BME280;10774;42.178;26.578;2023-04-25T01:29:27;99292.78;;;13.15;78.23
21234;BME280;10774;42.178;26.578;2023-04-25T01:31:53;99265.19;;;13.23;78.02
21234;BME280;10774;42.178;26.578;2023-04-25T01:34:19;99283.69;;;13.27;78.34
21234;BME280;10774;42.178;26.578;2023-04-25T01:36:49;99275.94;;;13.34;77.19
21234;BME280;10774;42.178;26.578;2023-04-25T01:39:16;99257.84;;;13.25;76.57
21234;BME280;10774;42.178;26.578;2023-04-25T01:41:42;99263.56;;;13.31;76.66
21234;BME280;10774;42.178;26.578;2023-04-25T01:44:07;99246.09;;;13.26;77.11
21234;BME280;10774;42.178;26.578;2023-04-25T01:46:34;99254.34;;;13.13;78.99
21234;BME280;10774;42.178;26.578;2023-04-25T01:48:59;99227.09;;;12.74;81.44
21234;BME280;10774;42.178;26.578;2023-04-25T01:51:25;99219.69;;;12.35;84.89
21234;BME280;10774;42.178;26.578;2023-04-25T01:53:50;99242.97;;;12.56;85.76
21234;BME280;10774;42.178;26.578;2023-04-25T01:56:18;99235.47;;;12.60;86.76
21234;BME280;10774;42.178;26.578;2023-04-25T01:58:43;99236.69;;;12.67;85.88
21234;BME280;10774;42.178;26.578;2023-04-25T02:01:08;99203.13;;;12.50;86.36
21234;BME280;10774;42.178;26.578;2023-04-25T02:03:34;99229.34;;;12.69;85.96
21234;BME280;10774;42.178;26.578;2023-04-25T02:05:59;99229.34;;;12.69;86.96
21234;BME280;10774;42.178;26.578;2023-04-25T02:08:25;99234.25;;;12.64;87.29
21234;BME280;10774;42.178;26.578;2023-04-25T02:10:52;99243.44;;;12.62;87.56
21234;BME280;10774;42.178;26.578;2023-04-25T02:13:17;99231.81;;;12.61;87.63
21234;BME280;10774;42.178;26.578;2023-04-25T02:15:42;99235.94;;;12.76;86.39
21234;BME280;10774;42.178;26.578;2023-04-25T02:18:08;99248.22;;;12.90;85.69
21234;BME280;10774;42.178;26.578;2023-04-25T02:20:35;99249.81;;;12.93;85.54
21234;BME280;10774;42.178;26.578;2023-04-25T02:23:01;99239.03;;;12.93;85.63
21234;BME280;10774;42.178;26.578;2023-04-25T02:25:27;99230.59;;;12.86;85.35
21234;BME280;10774;42.178;26.578;2023-04-25T02:27:52;99239.88;;;12.93;85.13
21234;BME280;10774;42.178;26.578;2023-04-25T02:30:18;99216.09;;;12.77;85.80
21234;BME280;10774;42.178;26.578;2023-04-25T02:32:43;99252.03;;;12.88;85.69
21234;BME280;10774;42.178;26.578;2023-04-25T02:35:09;99239.22;;;13.01;84.85
21234;BME280;10774;42.178;26.578;2023-04-25T02:37:37;99226.66;;;12.90;84.73
21234;BME280;10774;42.178;26.578;2023-04-25T02:40:03;99220.41;;;12.90;84.25
21234;BME280;10774;42.178;26.578;2023-04-25T02:42:29;99227.44;;;12.81;84.70
21234;BME280;10774;42.178;26.578;2023-04-25T02:44:55;99238.94;;;12.83;84.83
21234;BME280;10774;42.178;26.578;2023-04-25T02:47:21;99259.25;;;12.87;85.11
21234;BME280;10774;42.178;26.578;2023-04-25T02:49:46;99262.53;;;12.91;84.95
21234;BME280;10774;42.178;26.578;2023-04-25T02:52:12;99249.25;;;12.78;85.27
21234;BME280;10774;42.178;26.578;2023-04-25T02:54:38;99264.50;;;12.89;85.64
21234;BME280;10774;42.178;26.578;2023-04-25T02:57:04;99256.44;;;12.89;85.63
21234;BME280;10774;42.178;26.578;2023-04-25T02:59:29;99249.78;;;12.72;86.31
21234;BME280;10774;42.178;26.578;2023-04-25T03:01:55;99260.53;;;12.72;87.29
21234;BME280;10774;42.178;26.578;2023-04-25T03:04:20;99255.72;;;12.75;87.17
21234;BME280;10774;42.178;26.578;2023-04-25T03:06:49;99244.31;;;12.62;87.73
21234;BME280;10774;42.178;26.578;2023-04-25T03:09:15;99258.94;;;12.69;88.61
21234;BME280;10774;42.178;26.578;2023-04-25T03:11:40;99239.69;;;12.53;89.77
21234;BME280;10774;42.178;26.578;2023-04-25T03:14:06;99251.38;;;12.63;89.83
21234;BME280;10774;42.178;26.578;2023-04-25T03:16:31;99250.44;;;12.53;90.24
21234;BME280;10774;42.178;26.578;2023-04-25T03:18:57;99232.06;;;12.58;89.79
21234;BME280;10774;42.178;26.578;2023-04-25T03:21:23;99243.44;;;12.62;90.54
21234;BME280;10774;42.178;26.578;2023-04-25T03:23:48;99255.06;;;12.62;91.76
21234;BME280;10774;42.178;26.578;2023-04-25T03:26:14;99234.19;;;12.43;92.27
21234;BME280;10774;42.178;26.578;2023-04-25T03:28:39;99251.13;;;12.34;94.31
21234;BME280;10774;42.178;26.578;2023-04-25T03:31:05;99250.06;;;12.57;94.08
21234;BME280;10774;42.178;26.578;2023-04-25T03:33:31;99253.09;;;12.64;93.34
21234;BME280;10774;42.178;26.578;2023-04-25T03:35:56;99225.75;;;12.48;93.08
21234;BME280;10774;42.178;26.578;2023-04-25T03:38:22;99243.78;;;12.68;92.60
21234;BME280;10774;42.178;26.578;2023-04-25T03:40:47;99247.97;;;12.93;91.28
21234;BME280;10774;42.178;26.578;2023-04-25T03:43:12;99257.25;;;13.21;89.66
21234;BME280;10774;42.178;26.578;2023-04-25T03:45:38;99237.66;;;13.19;88.27
21234;BME280;10774;42.178;26.578;2023-04-25T03:48:03;99247.53;;;13.30;89.07
21234;BME280;10774;42.178;26.578;2023-04-25T03:50:29;99235.31;;;13.26;88.81
21234;BME280;10774;42.178;26.578;2023-04-25T03:52:54;99234.28;;;13.48;88.00
21234;BME280;10774;42.178;26.578;2023-04-25T03:55:20;99232.50;;;13.58;88.01
21234;BME280;10774;42.178;26.578;2023-04-25T03:57:46;99227.41;;;13.65;87.43
21234;BME280;10774;42.178;26.578;2023-04-25T04:00:11;99232.44;;;13.79;87.12
21234;BME280;10774;42.178;26.578;2023-04-25T04:02:37;99221.06;;;13.66;86.81
21234;BME280;10774;42.178;26.578;2023-04-25T04:05:04;99234.56;;;13.75;87.44
21234;BME280;10774;42.178;26.578;2023-04-25T04:07:29;99229.75;;;13.79;86.96
21234;BME280;10774;42.178;26.578;2023-04-25T04:09:57;99239.16;;;13.84;87.40
21234;BME280;10774;42.178;26.578;2023-04-25T04:12:22;99236.34;;;13.96;86.27
21234;BME280;10774;42.178;26.578;2023-04-25T04:14:48;99234.09;;;14.01;85.88
21234;BME280;10774;42.178;26.578;2023-04-25T04:17:13;99237.75;;;13.90;85.90
21234;BME280;10774;42.178;26.578;2023-04-25T04:19:39;99237.22;;;14.06;85.96
21234;BME280;10774;42.178;26.578;2023-04-25T04:22:04;99239.84;;;14.27;84.67
21234;BME280;10774;42.178;26.578;2023-04-25T04:24:30;99216.69;;;14.24;84.33
21234;BME280;10774;42.178;26.578;2023-04-25T04:26:55;99243.91;;;14.52;83.41
21234;BME280;10774;42.178;26.578;2023-04-25T04:29:21;99236.22;;;14.47;84.31
21234;BME280;10774;42.178;26.578;2023-04-25T04:31:48;99231.88;;;14.25;85.57
21234;BME280;10774;42.178;26.578;2023-04-25T04:34:14;99208.59;;;14.24;84.65
21234;BME280;10774;42.178;26.578;2023-04-25T04:36:41;99221.09;;;14.45;84.00
21234;BME280;10774;42.178;26.578;2023-04-25T04:39:07;99217.59;;;14.54;82.62
21234;BME280;10774;42.178;26.578;2023-04-25T04:41:34;99226.25;;;14.48;82.74
21234;BME280;10774;42.178;26.578;2023-04-25T04:43:59;99226.50;;;14.35;82.95
21234;BME280;10774;42.178;26.578;2023-04-25T04:46:26;99234.38;;;14.48;82.85
21234;BME280;10774;42.178;26.578;2023-04-25T04:48:53;99229.81;;;14.48;82.82
21234;BME280;10774;42.178;26.578;2023-04-25T04:51:19;99210.22;;;14.56;82.90
21234;BME280;10774;42.178;26.578;2023-04-25T04:53:45;99224.44;;;14.58;81.67
21234;BME280;10774;42.178;26.578;2023-04-25T04:56:11;99207.53;;;14.56;81.28
21234;BME280;10774;42.178;26.578;2023-04-25T04:58:36;99207.22;;;14.69;80.40
21234;BME280;10774;42.178;26.578;2023-04-25T05:01:02;99213.06;;;14.83;78.99
21234;BME280;10774;42.178;26.578;2023-04-25T05:03:28;99222.00;;;14.94;78.67
21234;BME280;10774;42.178;26.578;2023-04-25T05:05:53;99206.97;;;14.72;78.23
21234;BME280;10774;42.178;26.578;2023-04-25T05:08:20;99206.06;;;14.81;78.09
21234;BME280;10774;42.178;26.578;2023-04-25T05:10:45;99227.69;;;15.00;77.50
21234;BME280;10774;42.178;26.578;2023-04-25T05:13:11;99214.91;;;14.93;77.36
21234;BME280;10774;42.178;26.578;2023-04-25T05:15:36;99222.13;;;14.92;77.48
21234;BME280;10774;42.178;26.578;2023-04-25T05:18:01;99231.97;;;14.93;77.72
21234;BME280;10774;42.178;26.578;2023-04-25T05:20:27;99226.00;;;14.89;78.65
21234;BME280;10774;42.178;26.578;2023-04-25T05:22:52;99227.41;;;14.94;80.65
21234;BME280;10774;42.178;26.578;2023-04-25T05:25:17;99236.38;;;14.75;83.13
21234;BME280;10774;42.178;26.578;2023-04-25T05:27:43;99228.81;;;14.59;85.35
21234;BME280;10774;42.178;26.578;2023-04-25T05:30:08;99238.91;;;14.76;84.78
21234;BME280;10774;42.178;26.578;2023-04-25T05:32:34;99217.88;;;14.89;83.28
21234;BME280;10774;42.178;26.578;2023-04-25T05:35:01;99225.00;;;14.90;82.98
21234;BME280;10774;42.178;26.578;2023-04-25T05:37:26;99222.28;;;14.81;83.95
21234;BME280;10774;42.178;26.578;2023-04-25T05:39:52;99239.06;;;14.65;85.38
21234;BME280;10774;42.178;26.578;2023-04-25T05:42:18;99225.13;;;13.60;95.14
21234;BME280;10774;42.178;26.578;2023-04-25T05:44:44;99219.81;;;13.79;96.44
21234;BME280;10774;42.178;26.578;2023-04-25T05:47:09;99242.25;;;13.80;96.94
21234;BME280;10774;42.178;26.578;2023-04-25T05:49:35;99233.03;;;14.42;93.86
21234;BME280;10774;42.178;26.578;2023-04-25T05:52:00;99236.22;;;14.76;88.91
21234;BME280;10774;42.178;26.578;2023-04-25T05:54:26;99243.47;;;15.05;87.09
21234;BME280;10774;42.178;26.578;2023-04-25T05:56:51;99238.75;;;15.26;84.97
21234;BME280;10774;42.178;26.578;2023-04-25T05:59:16;99229.28;;;15.50;81.39
21234;BME280;10774;42.178;26.578;2023-04-25T06:01:42;99228.59;;;15.48;81.18
21234;BME280;10774;42.178;26.578;2023-04-25T06:04:07;99240.50;;;15.74;78.65
21234;BME280;10774;42.178;26.578;2023-04-25T06:06:32;99227.22;;;15.81;76.83
21234;BME280;10774;42.178;26.578;2023-04-25T06:08:58;99224.59;;;15.99;76.07
21234;BME280;10774;42.178;26.578;2023-04-25T06:11:23;99218.97;;;16.10;74.71
21234;BME280;10774;42.178;26.578;2023-04-25T06:13:49;99229.22;;;16.34;73.92
21234;BME280;10774;42.178;26.578;2023-04-25T06:16:14;99227.84;;;16.47;73.44
21234;BME280;10774;42.178;26.578;2023-04-25T06:18:40;99208.78;;;16.21;74.10
21234;BME280;10774;42.178;26.578;2023-04-25T06:21:05;99204.25;;;16.40;73.21
21234;BME280;10774;42.178;26.578;2023-04-25T06:23:31;99210.28;;;16.52;73.05
21234;BME280;10774;42.178;26.578;2023-04-25T06:25:57;99227.47;;;16.60;73.19
21234;BME280;10774;42.178;26.578;2023-04-25T06:28:22;99228.69;;;16.66;72.10
21234;BME280;10774;42.178;26.578;2023-04-25T06:30:49;99215.09;;;16.58;70.74
21234;BME280;10774;42.178;26.578;2023-04-25T06:33:15;99221.91;;;16.62;72.10
21234;BME280;10774;42.178;26.578;2023-04-25T06:35:40;99231.75;;;16.81;70.78
21234;BME280;10774;42.178;26.578;2023-04-25T06:38:06;99219.91;;;16.99;70.11
21234;BME280;10774;42.178;26.578;2023-04-25T06:40:31;99227.09;;;17.61;68.68
21234;BME280;10774;42.178;26.578;2023-04-25T06:42:57;99215.50;;;17.50;68.07
21234;BME280;10774;42.178;26.578;2023-04-25T06:45:22;99216.97;;;17.37;69.66
21234;BME280;10774;42.178;26.578;2023-04-25T06:47:47;99213.78;;;17.41;70.92
21234;BME280;10774;42.178;26.578;2023-04-25T06:50:13;99200.94;;;17.51;69.51
21234;BME280;10774;42.178;26.578;2023-04-25T06:52:38;99207.72;;;17.56;69.94
21234;BME280;10774;42.178;26.578;2023-04-25T06:55:04;99202.00;;;17.59;71.38
21234;BME280;10774;42.178;26.578;2023-04-25T06:57:30;99218.97;;;17.87;70.89
21234;BME280;10774;42.178;26.578;2023-04-25T06:59:56;99201.81;;;17.86;69.12
21234;BME280;10774;42.178;26.578;2023-04-25T07:02:21;99207.00;;;18.14;68.78
21234;BME280;10774;42.178;26.578;2023-04-25T07:04:47;99209.41;;;18.17;67.88
21234;BME280;10774;42.178;26.578;2023-04-25T07:07:13;99208.25;;;18.19;67.97
21234;BME280;10774;42.178;26.578;2023-04-25T07:09:38;99199.25;;;18.27;67.71
21234;BME280;10774;42.178;26.578;2023-04-25T07:12:04;99201.97;;;18.27;66.68
21234;BME280;10774;42.178;26.578;2023-04-25T07:14:29;99208.47;;;18.42;66.08
21234;BME280;10774;42.178;26.578;2023-04-25T07:16:55;99191.81;;;18.45;66.26
21234;BME280;10774;42.178;26.578;2023-04-25T07:19:23;99195.47;;;18.70;63.01
21234;BME280;10774;42.178;26.578;2023-04-25T07:21:54;99193.44;;;18.72;63.67
21234;BME280;10774;42.178;26.578;2023-04-25T07:24:20;99180.97;;;18.53;63.77
21234;BME280;10774;42.178;26.578;2023-04-25T07:26:45;99177.59;;;18.60;63.22
21234;BME280;10774;42.178;26.578;2023-04-25T07:29:10;99167.66;;;18.18;66.03
21234;BME280;10774;42.178;26.578;2023-04-25T07:31:36;99184.56;;;17.95;67.22
21234;BME280;10774;42.178;26.578;2023-04-25T07:34:01;99173.56;;;17.37;70.43
21234;BME280;10774;42.178;26.578;2023-04-25T07:36:27;99189.38;;;17.75;68.56
21234;BME280;10774;42.178;26.578;2023-04-25T07:38:53;99187.22;;;17.87;68.83
21234;BME280;10774;42.178;26.578;2023-04-25T07:41:18;99174.22;;;17.65;68.19
21234;BME280;10774;42.178;26.578;2023-04-25T07:43:43;99174.47;;;17.45;70.90
21234;BME280;10774;42.178;26.578;2023-04-25T07:46:09;99173.84;;;17.60;69.98
21234;BME280;10774;42.178;26.578;2023-04-25T07:48:34;99184.97;;;18.09;68.97
21234;BME280;10774;42.178;26.578;2023-04-25T07:51:00;99179.72;;;18.15;68.34
21234;BME280;10774;42.178;26.578;2023-04-25T07:53:25;99182.97;;;18.27;68.23
21234;BME280;10774;42.178;26.578;2023-04-25T07:55:51;99160.78;;;17.97;67.61
21234;BME280;10774;42.178;26.578;2023-04-25T07:58:16;99174.59;;;18.12;69.07
21234;BME280;10774;42.178;26.578;2023-04-25T08:00:46;99175.75;;;17.93;69.11
21234;BME280;10774;42.178;26.578;2023-04-25T08:03:11;99162.22;;;18.18;67.53
21234;BME280;10774;42.178;26.578;2023-04-25T08:05:37;99167.34;;;18.21;67.51
21234;BME280;10774;42.178;26.578;2023-04-25T08:08:02;99155.47;;;18.38;68.02
21234;BME280;10774;42.178;26.578;2023-04-25T08:10:28;99170.50;;;18.91;66.00
21234;BME280;10774;42.178;26.578;2023-04-25T08:12:56;99165.00;;;18.59;65.60
21234;BME280;10774;42.178;26.578;2023-04-25T08:15:21;99153.66;;;18.71;65.17
21234;BME280;10774;42.178;26.578;2023-04-25T08:17:47;99172.31;;;18.66;64.20
21234;BME280;10774;42.178;26.578;2023-04-25T08:20:12;99155.19;;;18.90;63.90
21234;BME280;10774;42.178;26.578;2023-04-25T08:22:38;99151.94;;;19.19;63.65
21234;BME280;10774;42.178;26.578;2023-04-25T08:25:03;99163.09;;;19.49;62.35
21234;BME280;10774;42.178;26.578;2023-04-25T08:27:29;99164.44;;;19.69;59.44
21234;BME280;10774;42.178;26.578;2023-04-25T08:29:55;99170.00;;;19.76;60.72
21234;BME280;10774;42.178;26.578;2023-04-25T08:32:20;99154.38;;;19.70;61.35
21234;BME280;10774;42.178;26.578;2023-04-25T08:34:46;99150.63;;;19.79;59.97
21234;BME280;10774;42.178;26.578;2023-04-25T08:37:12;99121.63;;;19.86;60.68
21234;BME280;10774;42.178;26.578;2023-04-25T08:39:37;99126.13;;;20.10;58.84
21234;BME280;10774;42.178;26.578;2023-04-25T08:42:06;99108.50;;;20.21;59.05
21234;BME280;10774;42.178;26.578;2023-04-25T08:44:35;99131.69;;;20.48;60.83
21234;BME280;10774;42.178;26.578;2023-04-25T08:47:04;99124.78;;;20.83;59.56
21234;BME280;10774;42.178;26.578;2023-04-25T08:49:33;99142.88;;;21.13;59.00
21234;BME280;10774;42.178;26.578;2023-04-25T08:52:00;99134.84;;;20.97;57.15
21234;BME280;10774;42.178;26.578;2023-04-25T08:54:27;99139.34;;;20.90;56.79
21234;BME280;10774;42.178;26.578;2023-04-25T08:56:54;99138.44;;;20.98;56.32
21234;BME280;10774;42.178;26.578;2023-04-25T08:59:21;99131.81;;;20.23;57.59
21234;BME280;10774;42.178;26.578;2023-04-25T09:01:49;99125.47;;;20.31;59.07
21234;BME280;10774;42.178;26.578;2023-04-25T09:04:15;99125.81;;;20.59;57.67
21234;BME280;10774;42.178;26.578;2023-04-25T09:06:40;99117.00;;;20.26;58.44
21234;BME280;10774;42.178;26.578;2023-04-25T09:09:07;99126.75;;;20.20;58.98
21234;BME280;10774;42.178;26.578;2023-04-25T09:11:34;99127.56;;;20.52;58.50
21234;BME280;10774;42.178;26.578;2023-04-25T09:14:15;99124.03;;;20.89;56.17
21234;BME280;10774;42.178;26.578;2023-04-25T09:17:13;99122.81;;;21.44;57.17
21234;BME280;10774;42.178;26.578;2023-04-25T09:19:39;99106.59;;;20.75;56.88
21234;BME280;10774;42.178;26.578;2023-04-25T09:22:05;99121.06;;;20.76;57.25
21234;BME280;10774;42.178;26.578;2023-04-25T09:24:40;99102.53;;;21.24;56.45
21234;BME280;10774;42.178;26.578;2023-04-25T09:27:26;99109.06;;;21.52;56.36
21234;BME280;10774;42.178;26.578;2023-04-25T09:29:58;99106.59;;;22.23;54.32
21234;BME280;10774;42.178;26.578;2023-04-25T09:32:25;99065.44;;;21.29;54.91
21234;BME280;10774;42.178;26.578;2023-04-25T09:34:53;99089.19;;;21.73;53.97
21234;BME280;10774;42.178;26.578;2023-04-25T09:37:21;99103.59;;;22.18;51.26
21234;BME280;10774;42.178;26.578;2023-04-25T09:39:48;99095.88;;;22.43;52.02
21234;BME280;10774;42.178;26.578;2023-04-25T09:42:15;99081.94;;;22.59;51.53
21234;BME280;10774;42.178;26.578;2023-04-25T09:44:47;99064.69;;;22.37;52.05
21234;BME280;10774;42.178;26.578;2023-04-25T09:47:14;99079.34;;;22.30;51.97
21234;BME280;10774;42.178;26.578;2023-04-25T09:49:42;99073.25;;;21.77;53.28
21234;BME280;10774;42.178;26.578;2023-04-25T09:52:16;99071.81;;;21.81;53.29
21234;BME280;10774;42.178;26.578;2023-04-25T09:54:46;99072.03;;;21.79;53.67
21234;BME280;10774;42.178;26.578;2023-04-25T09:57:16;99088.41;;;21.94;53.66
21234;BME280;10774;42.178;26.578;2023-04-25T09:59:53;99052.75;;;21.51;52.67
21234;BME280;10774;42.178;26.578;2023-04-25T10:02:23;99082.31;;;21.62;53.20
21234;BME280;10774;42.178;26.578;2023-04-25T10:04:53;99079.31;;;21.57;53.53
21234;BME280;10774;42.178;26.578;2023-04-25T10:07:24;99079.97;;;21.30;54.47
21234;BME280;10774;42.178;26.578;2023-04-25T10:10:01;99067.84;;;21.32;54.64
21234;BME280;10774;42.178;26.578;2023-04-25T10:12:28;99053.69;;;21.58;53.72
21234;BME280;10774;42.178;26.578;2023-04-25T10:14:54;99053.84;;;21.72;53.31
21234;BME280;10774;42.178;26.578;2023-04-25T10:17:20;99063.88;;;21.35;54.32
21234;BME280;10774;42.178;26.578;2023-04-25T10:19:47;99062.94;;;21.57;53.94
21234;BME280;10774;42.178;26.578;2023-04-25T10:22:34;99042.41;;;21.83;53.42
21234;BME280;10774;42.178;26.578;2023-04-25T10:25:01;99051.59;;;23.04;50.89
21234;BME280;10774;42.178;26.578;2023-04-25T10:27:29;99055.06;;;21.84;51.47
21234;BME280;10774;42.178;26.578;2023-04-25T10:32:30;99043.75;;;23.29;49.24
21234;BME280;10774;42.178;26.578;2023-04-25T10:34:56;99041.78;;;23.16;49.11
21234;BME280;10774;42.178;26.578;2023-04-25T10:37:23;99041.66;;;23.72;47.72
21234;BME280;10774;42.178;26.578;2023-04-25T10:39:49;99025.69;;;23.82;47.29
21234;BME280;10774;42.178;26.578;2023-04-25T10:42:14;99039.72;;;24.34;46.90
21234;BME280;10774;42.178;26.578;2023-04-25T10:44:40;99047.69;;;24.09;46.69
21234;BME280;10774;42.178;26.578;2023-04-25T10:47:07;99040.28;;;22.85;48.55
21234;BME280;10774;42.178;26.578;2023-04-25T10:49:42;99043.78;;;22.51;48.71
21234;BME280;10774;42.178;26.578;2023-04-25T10:52:14;99040.56;;;23.25;46.82
21234;BME280;10774;42.178;26.578;2023-04-25T10:54:56;99043.41;;;22.54;46.92
21234;BME280;10774;42.178;26.578;2023-04-25T10:57:36;99026.81;;;21.98;49.07
21234;BME280;10774;42.178;26.578;2023-04-25T11:02:40;99053.06;;;23.00;47.83
21234;BME280;10774;42.178;26.578;2023-04-25T11:05:06;99042.72;;;22.74;48.20
21234;BME280;10774;42.178;26.578;2023-04-25T11:07:34;99055.69;;;22.65;48.78
21234;BME280;10774;42.178;26.578;2023-04-25T11:10:03;99041.72;;;22.53;48.56
21234;BME280;10774;42.178;26.578;2023-04-25T11:12:30;99066.59;;;22.58;48.11
21234;BME280;10774;42.178;26.578;2023-04-25T11:15:04;99064.91;;;22.57;52.49
21234;BME280;10774;42.178;26.578;2023-04-25T11:17:30;99047.56;;;22.50;53.53
21234;BME280;10774;42.178;26.578;2023-04-25T11:19:55;99065.16;;;22.41;55.62
21234;BME280;10774;42.178;26.578;2023-04-25T11:22:22;99046.09;;;22.76;55.97
21234;BME280;10774;42.178;26.578;2023-04-25T11:24:48;99042.22;;;23.19;53.82
21234;BME280;10774;42.178;26.578;2023-04-25T11:27:14;99029.94;;;23.85;52.41
21234;BME280;10774;42.178;26.578;2023-04-25T11:29:40;99037.47;;;23.83;50.02
21234;BME280;10774;42.178;26.578;2023-04-25T11:32:06;99019.72;;;23.65;49.67
21234;BME280;10774;42.178;26.578;2023-04-25T11:34:32;99023.72;;;24.44;47.12
21234;BME280;10774;42.178;26.578;2023-04-25T11:36:58;99006.22;;;24.45;46.18
21234;BME280;10774;42.178;26.578;2023-04-25T11:39:25;99017.41;;;24.43;46.93
21234;BME280;10774;42.178;26.578;2023-04-25T11:41:52;99027.03;;;23.10;47.51
21234;BME280;10774;42.178;26.578;2023-04-25T11:44:18;99014.09;;;23.04;47.85
21234;BME280;10774;42.178;26.578;2023-04-25T11:46:44;99009.91;;;22.74;48.81
21234;BME280;10774;42.178;26.578;2023-04-25T11:49:10;99015.94;;;22.41;50.13
21234;BME280;10774;42.178;26.578;2023-04-25T11:51:43;99011.53;;;22.68;49.63
21234;BME280;10774;42.178;26.578;2023-04-25T11:54:09;98980.50;;;22.54;49.65
21234;BME280;10774;42.178;26.578;2023-04-25T11:56:34;98983.09;;;22.62;49.64
21234;BME280;10774;42.178;26.578;2023-04-25T11:59:04;98988.66;;;22.76;50.46
21234;BME280;10774;42.178;26.578;2023-04-25T12:01:32;98963.53;;;22.65;49.49
21234;BME280;10774;42.178;26.578;2023-04-25T12:03:58;98980.47;;;22.26;49.71
21234;BME280;10774;42.178;26.578;2023-04-25T12:06:27;98971.03;;;22.85;51.15
21234;BME280;10774;42.178;26.578;2023-04-25T12:11:25;98952.78;;;24.01;49.60
21234;BME280;10774;42.178;26.578;2023-04-25T12:13:52;98940.50;;;23.70;51.14
21234;BME280;10774;42.178;26.578;2023-04-25T12:16:19;98952.44;;;23.08;52.90
21234;BME280;10774;42.178;26.578;2023-04-25T12:18:44;98946.88;;;22.60;53.62
21234;BME280;10774;42.178;26.578;2023-04-25T12:21:10;98952.94;;;22.56;53.77
21234;BME280;10774;42.178;26.578;2023-04-25T12:23:38;98959.44;;;22.27;53.96
21234;BME280;10774;42.178;26.578;2023-04-25T12:26:04;98958.53;;;22.41;54.36
21234;BME280;10774;42.178;26.578;2023-04-25T12:28:32;98941.50;;;22.17;53.67
21234;BME280;10774;42.178;26.578;2023-04-25T12:30:59;98967.19;;;22.02;54.89
21234;BME280;10774;42.178;26.578;2023-04-25T12:33:26;98957.25;;;21.94;55.47
21234;BME280;10774;42.178;26.578;2023-04-25T12:35:53;98964.38;;;21.95;56.47
21234;BME280;10774;42.178;26.578;2023-04-25T12:38:29;98964.25;;;21.82;56.38
21234;BME280;10774;42.178;26.578;2023-04-25T12:40:56;98976.84;;;21.61;57.11
21234;BME280;10774;42.178;26.578;2023-04-25T12:43:21;98992.31;;;21.25;57.93
21234;BME280;10774;42.178;26.578;2023-04-25T12:45:48;98990.06;;;20.69;58.11
21234;BME280;10774;42.178;26.578;2023-04-25T12:48:14;99026.00;;;19.81;58.73
21234;BME280;10774;42.178;26.578;2023-04-25T12:50:39;99011.16;;;19.13;59.64
21234;BME280;10774;42.178;26.578;2023-04-25T12:53:06;98997.16;;;18.77;60.26
21234;BME280;10774;42.178;26.578;2023-04-25T12:55:31;99020.31;;;18.40;61.74